Time;durP1;ratioP1;P1;durP2;ratioP2;P2;SDS_P1;SDS_P2;PMS_P1;PMS_P2;Temp;Humidity;BMP_temperature;BMP_pressure;BME280_temperature;BME280_humidity;BME280_pressure;Samples;Min_cycle;Max_cycle;Signal;HPM_P1;HPM_P2
2023/07/23 00:02:26;;;;;;;2.95;2.35;;;;;;;;;;5091962;28;20237;-92
2023/07/23 00:04:55;;;;;;;3.10;2.58;;;;;;;;;;5077327;28;20225;-91
2023/07/23 00:07:22;;;;;;;3.22;2.88;;;;;;;;;;5077189;28;20231;-92
2023/07/23 00:09:49;;;;;;;3.50;2.63;;;;;;;;;;5081981;28;20282;-92
2023/07/23 00:12:16;;;;;;;4.63;2.90;;;;;;;;;;5083429;28;20236;-92
2023/07/23 00:14:43;;;;;;;3.25;2.67;;;;;;;;;;5087627;28;20674;-90
2023/07/23 00:17:11;;;;;;;2.85;2.58;;;;;;;;;;5088009;28;20559;-91
2023/07/23 00:19:38;;;;;;;5.53;2.63;;;;;;;;;;5095787;28;20262;-91
2023/07/23 00:22:06;;;;;;;3.83;2.47;;;;;;;;;;5092292;28;20220;-91
2023/07/23 00:24:34;;;;;;;3.97;2.50;;;;;;;;;;5091645;28;20205;-92
2023/07/23 00:27:01;;;;;;;3.22;2.58;;;;;;;;;;5077554;28;20209;-92
2023/07/23 00:29:28;;;;;;;3.03;2.72;;;;;;;;;;5079373;28;20239;-92
2023/07/23 00:31:55;;;;;;;4.63;2.63;;;;;;;;;;5078788;28;20606;-91
2023/07/23 00:34:22;;;;;;;3.22;2.58;;;;;;;;;;5077427;28;20209;-92
2023/07/23 00:36:49;;;;;;;2.88;2.55;;;;;;;;;;5077946;28;20212;-91
2023/07/23 00:39:18;;;;;;;5.20;3.10;;;;;;;;;;5096926;28;20221;-92
2023/07/23 00:41:45;;;;;;;4.90;2.78;;;;;;;;;;5090690;28;20247;-92
2023/07/23 00:44:12;;;;;;;3.70;2.60;;;;;;;;;;5081852;28;20231;-92
2023/07/23 00:46:39;;;;;;;5.53;2.88;;;;;;;;;;5077913;28;20236;-92
2023/07/23 00:49:06;;;;;;;4.40;3.10;;;;;;;;;;5097142;28;20314;-92
2023/07/23 00:51:35;;;;;;;3.72;2.40;;;;;;;;;;5082844;28;20240;-92
2023/07/23 00:54:03;;;;;;;3.75;2.28;;;;;;;;;;5077494;28;20312;-93
2023/07/23 00:56:31;;;;;;;4.75;2.75;;;;;;;;;;5084427;28;20202;-92
2023/07/23 00:58:58;;;;;;;3.67;2.50;;;;;;;;;;5075994;28;20292;-92
2023/07/23 01:01:26;;;;;;;4.53;2.60;;;;;;;;;;5078293;28;20205;-92
2023/07/23 01:03:53;;;;;;;2.63;2.42;;;;;;;;;;5080646;28;20282;-92
2023/07/23 01:06:21;;;;;;;3.83;2.45;;;;;;;;;;5085866;28;20224;-92
2023/07/23 01:08:48;;;;;;;4.22;2.65;;;;;;;;;;5075952;28;20698;-92
2023/07/23 01:11:16;;;;;;;2.60;2.40;;;;;;;;;;5076957;28;20229;-92
2023/07/23 01:13:44;;;;;;;2.70;2.50;;;;;;;;;;5076848;28;20247;-92
2023/07/23 01:16:12;;;;;;;2.60;2.40;;;;;;;;;;5090101;28;20550;-92
2023/07/23 01:18:39;;;;;;;5.25;2.75;;;;;;;;;;5081767;28;20764;-91
2023/07/23 01:21:06;;;;;;;3.03;2.72;;;;;;;;;;5085929;28;20225;-92
2023/07/23 01:23:35;;;;;;;5.45;2.72;;;;;;;;;;5077294;28;20217;-92
2023/07/23 01:26:02;;;;;;;3.70;3.05;;;;;;;;;;5080020;28;20240;-92
2023/07/23 01:28:29;;;;;;;3.30;2.78;;;;;;;;;;5082856;28;20221;-91
2023/07/23 01:30:56;;;;;;;8.50;2.97;;;;;;;;;;5076832;28;20646;-92
2023/07/23 01:33:24;;;;;;;2.70;2.42;;;;;;;;;;5081670;28;20228;-92
2023/07/23 01:35:52;;;;;;;3.47;2.65;;;;;;;;;;5079579;28;20201;-92
2023/07/23 01:38:19;;;;;;;3.00;2.70;;;;;;;;;;5081837;28;20225;-92
2023/07/23 01:40:49;;;;;;;3.63;2.95;;;;;;;;;;5089589;28;20204;-92
2023/07/23 01:43:17;;;;;;;4.15;2.83;;;;;;;;;;5088960;28;20235;-92
2023/07/23 01:45:45;;;;;;;3.25;2.78;;;;;;;;;;5097684;28;20239;-93
2023/07/23 01:48:12;;;;;;;3.92;2.75;;;;;;;;;;5068808;28;20730;-91
2023/07/23 01:50:39;;;;;;;3.92;2.80;;;;;;;;;;5077731;28;20220;-92
2023/07/23 01:53:06;;;;;;;3.50;2.75;;;;;;;;;;5077115;28;20766;-91
2023/07/23 01:55:33;;;;;;;4.00;2.70;;;;;;;;;;5077518;28;20592;-92
2023/07/23 01:58:02;;;;;;;5.57;3.00;;;;;;;;;;5077004;28;20241;-92
2023/07/23 02:00:29;;;;;;;2.97;2.57;;;;;;;;;;5077531;28;20223;-92
2023/07/23 02:02:56;;;;;;;2.93;2.40;;;;;;;;;;5082781;28;20224;-91
2023/07/23 02:05:23;;;;;;;8.85;3.08;;;;;;;;;;5088051;28;20281;-92
2023/07/23 02:07:50;;;;;;;2.95;2.40;;;;;;;;;;5080186;28;20239;-89
2023/07/23 02:10:18;;;;;;;4.05;2.58;;;;;;;;;;5094128;28;20220;-92
2023/07/23 02:12:46;;;;;;;6.30;2.80;;;;;;;;;;5078971;28;20233;-92
2023/07/23 02:15:16;;;;;;;4.32;2.80;;;;;;;;;;5087027;28;20202;-92
2023/07/23 02:17:44;;;;;;;3.53;2.70;;;;;;;;;;5083473;28;20229;-91
2023/07/23 02:23:02;;;;;;;3.63;2.67;;;;;;;;;;5081728;28;20738;-92
2023/07/23 02:28:31;;;;;;;3.30;2.97;;;;;;;;;;5062212;28;20287;-91
2023/07/23 02:34:20;;;;;;;2.70;2.50;;;;;;;;;;5018222;28;20230;-93
2023/07/23 02:37:00;;;;;;;3.03;2.77;;;;;;;;;;5074234;28;20652;-92
2023/07/23 02:39:29;;;;;;;3.83;2.83;;;;;;;;;;5044498;28;20224;-92
2023/07/23 02:42:16;;;;;;;3.30;3.00;;;;;;;;;;5061218;28;20229;-92
2023/07/23 02:44:59;;;;;;;3.40;3.10;;;;;;;;;;5070490;28;20217;-92
2023/07/23 02:47:35;;;;;;;3.80;3.23;;;;;;;;;;5070733;28;20221;-92
2023/07/23 02:50:26;;;;;;;4.33;3.40;;;;;;;;;;5080348;28;20260;-92
2023/07/23 02:53:01;;;;;;;3.13;2.83;;;;;;;;;;5093068;28;20240;-92
2023/07/23 02:55:33;;;;;;;4.47;2.90;;;;;;;;;;5094125;28;20211;-92
2023/07/23 02:58:11;;;;;;;4.57;2.73;;;;;;;;;;5093304;28;20243;-92
2023/07/23 03:00:49;;;;;;;4.47;2.70;;;;;;;;;;5093004;28;20208;-93
2023/07/23 03:03:27;;;;;;;2.73;2.53;;;;;;;;;;5092201;28;20656;-93
2023/07/23 03:06:12;;;;;;;2.97;2.70;;;;;;;;;;5093191;28;20217;-92
2023/07/23 03:11:49;;;;;;;3.57;2.80;;;;;;;;;;5091672;28;20205;-92
2023/07/23 03:14:27;;;;;;;3.37;2.60;;;;;;;;;;5072832;28;20218;-92
2023/07/23 03:16:59;;;;;;;3.77;2.50;;;;;;;;;;5076844;28;20199;-92
2023/07/23 03:19:31;;;;;;;5.13;2.57;;;;;;;;;;5093115;28;20205;-93
2023/07/23 03:22:12;;;;;;;3.53;2.97;;;;;;;;;;5091344;28;20225;-92
2023/07/23 03:24:58;;;;;;;;;;;;;;;;;;;;;
2023/07/23 03:27:30;;;;;;;3.13;2.83;;;;;;;;;;5092154;28;20219;-92
2023/07/23 03:33:27;;;;;;;3.93;2.97;;;;;;;;;;5093820;28;20225;-92
2023/07/23 03:36:00;;;;;;;3.40;2.80;;;;;;;;;;5102795;28;20232;-93
2023/07/23 03:38:45;;;;;;;3.43;2.70;;;;;;;;;;5113990;27;20225;-92
2023/07/23 03:41:28;;;;;;;6.00;3.07;;;;;;;;;;5114378;28;20225;-93
2023/07/23 03:44:22;;;;;;;8.27;2.77;;;;;;;;;;5112901;28;20663;-93
2023/07/23 03:47:18;;;;;;;3.20;2.90;;;;;;;;;;5114035;28;20370;-92
2023/07/23 03:49:53;;;;;;;3.60;2.90;;;;;;;;;;5102286;28;20678;-92
2023/07/23 03:52:22;;;;;;;3.33;3.03;;;;;;;;;;5110809;28;20236;-93
2023/07/23 03:55:16;;;;;;;4.57;2.87;;;;;;;;;;5114649;27;20188;-93
2023/07/23 03:57:49;;;;;;;2.67;2.47;;;;;;;;;;5071453;28;20230;-91
2023/07/23 04:00:30;;;;;;;3.10;2.80;;;;;;;;;;5073320;28;20202;-91
2023/07/23 04:03:02;;;;;;;6.53;2.80;;;;;;;;;;5072993;28;20229;-92
2023/07/23 04:05:35;;;;;;;3.17;2.87;;;;;;;;;;5092587;28;20224;-92
2023/07/23 04:08:04;;;;;;;3.50;3.03;;;;;;;;;;5081533;28;20233;-91
2023/07/23 04:10:34;;;;;;;5.17;3.00;;;;;;;;;;5085818;28;20193;-83
2023/07/23 04:13:03;;;;;;;3.10;2.80;;;;;;;;;;5095515;28;20236;-83
2023/07/23 04:15:41;;;;;;;3.47;2.60;;;;;;;;;;5097258;28;20270;-84
2023/07/23 04:18:15;;;;;;;2.93;2.63;;;;;;;;;;5095418;28;20883;-82
2023/07/23 04:20:50;;;;;;;4.17;3.30;;;;;;;;;;5096452;28;20286;-83
2023/07/23 04:23:29;;;;;;;4.10;2.90;;;;;;;;;;5100298;28;20582;-83
2023/07/23 04:26:06;;;;;;;4.93;2.77;;;;;;;;;;5099932;28;20736;-83
2023/07/23 04:28:46;;;;;;;2.77;2.57;;;;;;;;;;5079686;28;20282;-83
2023/07/23 04:33:59;;;;;;;3.40;2.97;;;;;;;;;;5078053;28;20282;-83
2023/07/23 04:36:53;;;;;;;2.97;2.67;;;;;;;;;;5066388;28;20204;-82
2023/07/23 04:39:24;;;;;;;3.67;3.13;;;;;;;;;;5030374;28;20268;-83
2023/07/23 04:41:59;;;;;;;3.53;2.83;;;;;;;;;;5066627;28;20244;-83
2023/07/23 04:44:36;;;;;;;4.17;3.07;;;;;;;;;;5086543;28;20223;-83
2023/07/23 04:47:17;;;;;;;3.93;2.97;;;;;;;;;;5067499;28;20606;-83
2023/07/23 04:49:48;;;;;;;4.57;2.70;;;;;;;;;;5080306;28;20296;-83
2023/07/23 04:52:22;;;;;;;6.10;2.80;;;;;;;;;;5079194;28;20256;-83
2023/07/23 04:54:57;;;;;;;3.37;3.03;;;;;;;;;;5077514;28;20209;-83
2023/07/23 04:57:26;;;;;;;3.40;3.00;;;;;;;;;;5077475;28;20596;-83
2023/07/23 05:00:09;;;;;;;4.03;2.93;;;;;;;;;;5077167;28;20212;-83
2023/07/23 05:02:45;;;;;;;3.10;2.80;;;;;;;;;;5069623;28;20257;-82
2023/07/23 05:05:16;;;;;;;4.07;2.90;;;;;;;;;;5074584;28;20196;-82
2023/07/23 05:08:03;;;;;;;3.80;3.00;;;;;;;;;;5074486;28;20609;-83
2023/07/23 05:10:33;;;;;;;4.47;2.70;;;;;;;;;;5076949;28;20193;-82
2023/07/23 05:13:03;;;;;;;3.77;2.83;;;;;;;;;;5074194;28;20267;-82
2023/07/23 05:15:30;;;;;;;4.23;3.00;;;;;;;;;;5074434;28;20286;-83
2023/07/23 05:18:02;;;;;;;4.57;2.67;;;;;;;;;;5081721;28;20600;-82
2023/07/23 05:20:29;;;;;;;2.97;2.60;;;;;;;;;;5074671;28;20304;-83
2023/07/23 05:22:56;;;;;;;2.43;2.23;;;;;;;;;;5073376;28;20731;-82
2023/07/23 05:25:28;;;;;;;5.73;2.50;;;;;;;;;;5074071;28;20219;-83
2023/07/23 05:27:55;;;;;;;3.27;2.63;;;;;;;;;;5081501;28;20244;-83
2023/07/23 05:30:24;;;;;;;4.20;3.00;;;;;;;;;;5074464;28;20208;-83
2023/07/23 05:32:51;;;;;;;3.33;2.50;;;;;;;;;;5072654;28;20252;-82
2023/07/23 05:35:18;;;;;;;3.23;2.57;;;;;;;;;;5081465;28;20580;-83
2023/07/23 05:37:45;;;;;;;3.37;2.70;;;;;;;;;;5091402;28;20240;-83
2023/07/23 05:40:17;;;;;;;3.60;2.80;;;;;;;;;;5096440;28;20207;-83
2023/07/23 05:42:48;;;;;;;2.70;2.50;;;;;;;;;;5092839;28;20260;-83
2023/07/23 05:45:17;;;;;;;3.40;2.60;;;;;;;;;;5080299;28;20220;-82
2023/07/23 05:47:49;;;;;;;3.33;2.67;;;;;;;;;;5078828;28;20347;-83
2023/07/23 05:50:19;;;;;;;3.63;2.93;;;;;;;;;;5079854;28;20209;-83
2023/07/23 05:52:46;;;;;;;4.07;2.60;;;;;;;;;;5075437;28;20233;-82
2023/07/23 05:55:13;;;;;;;2.60;2.40;;;;;;;;;;5075734;28;20210;-83
2023/07/23 05:57:43;;;;;;;3.87;2.30;;;;;;;;;;5075639;28;20233;-82
2023/07/23 06:00:18;;;;;;;5.70;2.90;;;;;;;;;;5077487;28;20198;-83
2023/07/23 06:05:35;;;;;;;2.60;2.40;;;;;;;;;;5070384;28;20220;-83
2023/07/23 06:08:02;;;;;;;4.37;2.37;;;;;;;;;;5073490;28;20240;-83
2023/07/23 06:10:35;;;;;;;6.38;2.20;;;;;;;;;;5075616;28;20251;-82
2023/07/23 06:13:05;;;;;;;3.15;2.50;;;;;;;;;;5083621;28;20235;-82
2023/07/23 06:15:35;;;;;;;6.22;2.33;;;;;;;;;;5083539;28;20213;-83
2023/07/23 06:18:04;;;;;;;4.97;2.65;;;;;;;;;;5086238;28;20243;-83
2023/07/23 06:20:31;;;;;;;2.50;2.30;;;;;;;;;;5101282;28;20240;-83
2023/07/23 06:23:00;;;;;;;2.60;2.40;;;;;;;;;;5098796;28;20233;-83
2023/07/23 06:25:32;;;;;;;6.47;2.70;;;;;;;;;;5087935;28;20609;-84
2023/07/23 06:28:05;;;;;;;2.83;2.30;;;;;;;;;;5078973;28;20302;-85
2023/07/23 06:30:36;;;;;;;2.28;2.08;;;;;;;;;;5087939;28;20221;-83
2023/07/23 06:33:05;;;;;;;3.67;2.70;;;;;;;;;;5077698;28;20236;-84
2023/07/23 06:35:37;;;;;;;2.65;2.20;;;;;;;;;;5087112;28;20209;-84
2023/07/23 06:38:06;;;;;;;3.25;2.45;;;;;;;;;;5062053;28;20221;-84
2023/07/23 06:40:48;;;;;;;3.20;2.20;;;;;;;;;;5089593;28;20241;-84
2023/07/23 06:46:16;;;;;;;4.18;2.42;;;;;;;;;;5083384;28;20216;-80
2023/07/23 06:48:47;;;;;;;2.60;2.33;;;;;;;;;;5069282;28;20229;-81
2023/07/23 06:51:25;;;;;;;3.05;2.70;;;;;;;;;;5076263;28;20225;-80
2023/07/23 06:53:57;;;;;;;2.30;2.17;;;;;;;;;;5074012;28;20227;-81
2023/07/23 06:56:41;;;;;;;3.53;2.40;;;;;;;;;;5077114;28;20322;-79
2023/07/23 07:04:52;;;;;;;4.85;2.30;;;;;;;;;;5046680;28;20224;-84
2023/07/23 07:07:28;;;;;;;2.40;2.03;;;;;;;;;;5057120;28;20317;-83
2023/07/23 07:09:57;;;;;;;4.43;1.50;;;;;;;;;;5077427;28;20730;-86
2023/07/23 07:12:25;;;;;;;2.05;1.85;;;;;;;;;;5080660;28;20267;-86
2023/07/23 07:14:53;;;;;;;4.60;1.80;;;;;;;;;;5080417;28;20205;-83
2023/07/23 07:17:22;;;;;;;1.48;1.38;;;;;;;;;;5065727;28;20583;-85
2023/07/23 07:19:50;;;;;;;2.40;1.60;;;;;;;;;;5057176;28;20206;-88
2023/07/23 07:22:19;;;;;;;2.67;1.73;;;;;;;;;;5049868;28;20238;-87
2023/07/23 07:24:47;;;;;;;1.65;1.55;;;;;;;;;;5069094;28;20814;-86
2023/07/23 07:27:16;;;;;;;2.00;1.77;;;;;;;;;;5054944;28;20807;-86
2023/07/23 07:29:46;;;;;;;1.80;1.70;;;;;;;;;;5071042;28;20210;-88
2023/07/23 07:32:14;;;;;;;3.00;1.90;;;;;;;;;;5057495;28;20599;-88
2023/07/23 07:34:46;;;;;;;1.67;1.58;;;;;;;;;;5059834;28;20660;-88
2023/07/23 07:37:21;;;;;;;2.75;1.63;;;;;;;;;;5060333;28;20234;-86
2023/07/23 07:39:52;;;;;;;2.10;1.90;;;;;;;;;;5057303;28;20284;-85
2023/07/23 07:42:19;;;;;;;3.05;1.80;;;;;;;;;;5065940;28;20229;-84
2023/07/23 07:44:50;;;;;;;3.00;1.70;;;;;;;;;;5049495;28;20295;-83
2023/07/23 07:50:00;;;;;;;2.88;1.67;;;;;;;;;;5064453;28;20205;-87
2023/07/23 07:52:29;;;;;;;3.70;1.70;;;;;;;;;;5054990;28;20238;-86
2023/07/23 07:54:59;;;;;;;1.70;1.60;;;;;;;;;;5055128;28;20198;-85
2023/07/23 07:57:27;;;;;;;1.75;1.65;;;;;;;;;;5058804;28;20232;-84
2023/07/23 07:59:58;;;;;;;1.80;1.48;;;;;;;;;;5057363;28;20210;-86
2023/07/23 08:02:39;;;;;;;1.70;1.60;;;;;;;;;;5055465;28;20233;-86
2023/07/23 08:05:10;;;;;;;1.75;1.35;;;;;;;;;;5056014;28;20289;-85
2023/07/23 08:07:52;;;;;;;2.13;1.60;;;;;;;;;;5056043;28;20233;-86
2023/07/23 08:10:19;;;;;;;3.83;1.60;;;;;;;;;;5056110;28;20210;-86
2023/07/23 08:12:49;;;;;;;4.60;2.13;;;;;;;;;;5056088;28;20226;-84
2023/07/23 08:15:18;;;;;;;1.52;1.42;;;;;;;;;;5057819;28;20226;-86
2023/07/23 08:17:45;;;;;;;1.58;1.35;;;;;;;;;;5057160;28;20255;-87
2023/07/23 08:20:13;;;;;;;7.13;1.27;;;;;;;;;;5056338;28;20260;-86
2023/07/23 08:22:42;;;;;;;2.28;1.30;;;;;;;;;;5055404;28;20249;-86
2023/07/23 08:25:10;;;;;;;1.40;1.30;;;;;;;;;;5055025;28;20205;-86
2023/07/23 08:27:38;;;;;;;3.13;1.70;;;;;;;;;;5054312;28;20241;-85
2023/07/23 08:30:11;;;;;;;2.60;1.35;;;;;;;;;;5055090;28;20193;-85
2023/07/23 08:32:38;;;;;;;4.65;1.55;;;;;;;;;;5055299;28;20233;-87
2023/07/23 08:35:06;;;;;;;0.98;0.95;;;;;;;;;;5055020;28;20202;-87
2023/07/23 08:37:33;;;;;;;1.00;0.95;;;;;;;;;;5054293;28;20230;-87
2023/07/23 08:40:02;;;;;;;1.30;1.20;;;;;;;;;;5054045;28;20644;-86
2023/07/23 08:42:51;;;;;;;1.13;0.90;;;;;;;;;;5049592;28;20765;-85
2023/07/23 08:45:24;;;;;;;1.98;1.10;;;;;;;;;;5049100;28;20209;-87
2023/07/23 08:48:01;;;;;;;5.18;1.10;;;;;;;;;;5048749;28;20238;-88
2023/07/23 08:50:28;;;;;;;1.35;1.10;;;;;;;;;;5051580;28;20221;-87
2023/07/23 08:52:56;;;;;;;1.10;1.00;;;;;;;;;;5053104;28;20222;-85
2023/07/23 08:55:24;;;;;;;5.10;1.02;;;;;;;;;;5053603;28;20202;-85
2023/07/23 08:57:54;;;;;;;3.22;1.05;;;;;;;;;;5053109;28;20229;-86
2023/07/23 09:00:27;;;;;;;2.55;1.30;;;;;;;;;;5052913;28;20202;-85
2023/07/23 09:02:55;;;;;;;1.13;1.00;;;;;;;;;;5052271;28;20695;-86
2023/07/23 09:05:24;;;;;;;6.65;1.42;;;;;;;;;;5054402;28;20606;-88
2023/07/23 09:07:51;;;;;;;2.70;0.95;;;;;;;;;;5053733;28;20776;-88
2023/07/23 09:10:18;;;;;;;1.00;0.98;;;;;;;;;;5054674;28;20838;-85
2023/07/23 09:12:46;;;;;;;0.90;0.90;;;;;;;;;;5059191;28;20226;-87
2023/07/23 09:15:18;;;;;;;1.20;1.10;;;;;;;;;;5058490;28;20679;-86
2023/07/23 09:17:49;;;;;;;0.98;0.80;;;;;;;;;;5059094;28;20295;-86
2023/07/23 09:20:18;;;;;;;2.50;1.20;;;;;;;;;;5061882;28;20186;-86
2023/07/23 09:22:45;;;;;;;2.50;1.10;;;;;;;;;;5048700;28;20241;-84
2023/07/23 09:25:12;;;;;;;1.90;1.70;;;;;;;;;;5058058;28;20682;-84
2023/07/23 09:27:42;;;;;;;2.55;1.23;;;;;;;;;;5058645;28;20242;-84
2023/07/23 09:30:17;;;;;;;1.02;0.88;;;;;;;;;;5058621;28;20449;-83
2023/07/23 09:32:44;;;;;;;2.20;1.30;;;;;;;;;;5057214;28;20225;-86
2023/07/23 09:35:13;;;;;;;2.55;0.85;;;;;;;;;;5059398;28;20202;-84
2023/07/23 09:37:42;;;;;;;1.20;1.20;;;;;;;;;;5059548;28;20237;-83
2023/07/23 09:40:10;;;;;;;3.40;1.02;;;;;;;;;;5060839;28;20210;-85
2023/07/23 09:48:06;;;;;;;47.22;3.88;;;;;;;;;;5057209;28;20225;-87
2023/07/23 09:50:39;;;;;;;1.10;1.00;;;;;;;;;;5061648;28;20221;-86
2023/07/23 09:53:09;;;;;;;2.90;0.93;;;;;;;;;;5057685;28;20226;-86
2023/07/23 09:55:36;;;;;;;1.10;0.95;;;;;;;;;;5058364;28;20206;-84
2023/07/23 09:58:04;;;;;;;1.13;1.08;;;;;;;;;;5057988;28;20218;-86
2023/07/23 10:00:40;;;;;;;1.73;1.10;;;;;;;;;;5063109;28;20209;-86
2023/07/23 10:03:08;;;;;;;1.17;1.10;;;;;;;;;;5061868;28;20225;-84
2023/07/23 10:05:35;;;;;;;1.10;1.02;;;;;;;;;;5060785;28;20210;-86
2023/07/23 10:08:08;;;;;;;1.55;1.45;;;;;;;;;;5059415;28;20241;-86
2023/07/23 10:10:35;;;;;;;3.20;1.42;;;;;;;;;;5059320;28;20191;-87
2023/07/23 10:13:02;;;;;;;1.35;1.00;;;;;;;;;;5058493;28;20226;-83
2023/07/23 10:15:40;;;;;;;1.10;1.00;;;;;;;;;;5059815;28;20206;-85
2023/07/23 10:18:09;;;;;;;2.75;1.20;;;;;;;;;;5059383;28;20235;-84
2023/07/23 10:20:36;;;;;;;1.60;1.33;;;;;;;;;;5058149;28;20216;-85
2023/07/23 10:23:10;;;;;;;1.38;1.27;;;;;;;;;;5057394;28;20234;-85
2023/07/23 10:25:40;;;;;;;1.60;1.50;;;;;;;;;;5059150;28;20236;-87
2023/07/23 10:28:11;;;;;;;1.35;1.25;;;;;;;;;;5057322;28;20237;-86
2023/07/23 10:30:38;;;;;;;2.25;1.00;;;;;;;;;;5059431;28;20217;-88
2023/07/23 10:33:23;;;;;;;2.60;1.35;;;;;;;;;;5061810;28;20233;-87
2023/07/23 10:36:02;;;;;;;1.48;1.30;;;;;;;;;;5064440;28;20951;-85
2023/07/23 10:38:30;;;;;;;1.65;1.55;;;;;;;;;;5038826;28;20226;-87
2023/07/23 10:40:58;;;;;;;2.13;1.20;;;;;;;;;;5052307;28;20220;-86
2023/07/23 10:43:25;;;;;;;1.77;1.30;;;;;;;;;;5060353;28;20229;-85
2023/07/23 10:46:02;;;;;;;12.35;1.95;;;;;;;;;;5060125;28;20433;-86
2023/07/23 10:48:39;;;;;;;1.27;1.17;;;;;;;;;;5058782;28;20281;-86
2023/07/23 10:51:11;;;;;;;1.45;1.13;;;;;;;;;;5056483;28;20218;-86
2023/07/23 10:53:40;;;;;;;5.75;1.70;;;;;;;;;;5056002;28;20252;-85
2023/07/23 10:56:22;;;;;;;2.42;1.40;;;;;;;;;;5052364;28;20260;-86
2023/07/23 10:58:49;;;;;;;1.48;1.33;;;;;;;;;;5057355;28;20216;-83
2023/07/23 11:01:21;;;;;;;1.40;1.15;;;;;;;;;;5055151;28;20222;-84
2023/07/23 11:03:49;;;;;;;4.32;1.55;;;;;;;;;;5054418;28;21114;-86
2023/07/23 11:06:27;;;;;;;3.10;1.10;;;;;;;;;;5055219;28;20206;-84
2023/07/23 11:08:56;;;;;;;1.70;1.08;;;;;;;;;;5053480;28;20233;-84
2023/07/23 11:11:29;;;;;;;1.27;1.17;;;;;;;;;;5054439;28;20226;-85
2023/07/23 11:13:56;;;;;;;1.33;1.23;;;;;;;;;;5047515;28;20229;-82
2023/07/23 11:16:23;;;;;;;2.08;1.27;;;;;;;;;;5054975;28;20205;-85
2023/07/23 11:18:51;;;;;;;1.27;1.10;;;;;;;;;;5053763;28;20218;-83
2023/07/23 11:21:18;;;;;;;1.52;1.33;;;;;;;;;;5054493;28;20218;-87
2023/07/23 11:23:46;;;;;;;1.17;1.17;;;;;;;;;;5053559;28;20889;-86
2023/07/23 11:26:14;;;;;;;3.13;1.27;;;;;;;;;;5049657;28;20206;-85
2023/07/23 11:28:41;;;;;;;2.08;1.45;;;;;;;;;;5054442;28;20245;-87
2023/07/23 11:31:09;;;;;;;1.23;1.13;;;;;;;;;;5054790;28;20229;-84
2023/07/23 11:33:36;;;;;;;2.40;1.30;;;;;;;;;;5053761;28;20321;-82
2023/07/23 11:36:03;;;;;;;1.52;1.42;;;;;;;;;;5053174;28;20903;-85
2023/07/23 11:38:32;;;;;;;2.42;1.35;;;;;;;;;;5053823;28;20240;-85
2023/07/23 11:41:02;;;;;;;1.20;1.10;;;;;;;;;;5055099;28;20778;-86
2023/07/23 11:43:29;;;;;;;8.68;1.52;;;;;;;;;;5054553;28;20331;-83
2023/07/23 11:45:56;;;;;;;1.67;1.55;;;;;;;;;;5061043;28;20652;-84
2023/07/23 11:48:24;;;;;;;1.40;1.23;;;;;;;;;;5053979;28;20237;-87
2023/07/23 11:50:52;;;;;;;1.50;1.10;;;;;;;;;;5054827;28;20218;-85
2023/07/23 11:53:31;;;;;;;1.42;1.30;;;;;;;;;;5051963;28;20226;-86
2023/07/23 11:56:05;;;;;;;2.42;1.73;;;;;;;;;;5037169;28;20210;-87
2023/07/23 11:58:33;;;;;;;1.45;1.25;;;;;;;;;;5052540;28;20226;-83
2023/07/23 12:01:00;;;;;;;1.73;1.60;;;;;;;;;;5060017;28;20229;-84
2023/07/23 12:03:27;;;;;;;1.40;1.30;;;;;;;;;;5054119;28;20747;-85
2023/07/23 12:05:54;;;;;;;1.80;1.35;;;;;;;;;;5053738;28;20213;-85
2023/07/23 12:08:21;;;;;;;1.67;1.58;;;;;;;;;;5061366;28;20384;-86
2023/07/23 12:10:49;;;;;;;1.65;1.40;;;;;;;;;;5052550;28;20734;-85
2023/07/23 12:13:17;;;;;;;1.75;1.40;;;;;;;;;;5053093;28;20222;-85
2023/07/23 12:15:54;;;;;;;1.85;1.52;;;;;;;;;;5053357;28;20581;-85
2023/07/23 12:18:21;;;;;;;1.33;1.05;;;;;;;;;;5060202;28;20229;-84
2023/07/23 12:20:49;;;;;;;2.95;1.10;;;;;;;;;;5053205;28;20240;-87
2023/07/23 12:23:16;;;;;;;1.65;1.50;;;;;;;;;;5053296;28;20221;-86
2023/07/23 12:25:43;;;;;;;1.77;1.67;;;;;;;;;;5053274;28;20202;-86
2023/07/23 12:28:10;;;;;;;2.83;1.63;;;;;;;;;;5052795;28;20218;-85
2023/07/23 12:30:38;;;;;;;1.77;1.67;;;;;;;;;;5052302;28;20226;-84
2023/07/23 12:33:05;;;;;;;1.52;1.42;;;;;;;;;;5052271;28;20233;-85
2023/07/23 12:35:32;;;;;;;1.98;1.77;;;;;;;;;;5051589;28;20213;-86
2023/07/23 12:38:00;;;;;;;2.42;1.85;;;;;;;;;;5046674;28;20237;-84
2023/07/23 12:40:28;;;;;;;1.70;1.60;;;;;;;;;;5052974;28;20202;-86
2023/07/23 12:42:55;;;;;;;1.75;1.50;;;;;;;;;;5053100;28;20230;-83
2023/07/23 12:45:22;;;;;;;2.15;1.63;;;;;;;;;;5052477;28;20209;-85
2023/07/23 12:47:50;;;;;;;2.17;1.58;;;;;;;;;;5052298;28;20234;-83
2023/07/23 12:50:17;;;;;;;2.08;1.58;;;;;;;;;;5052962;28;20229;-85
2023/07/23 12:52:44;;;;;;;2.25;2.00;;;;;;;;;;5051911;28;20659;-87
2023/07/23 12:55:11;;;;;;;3.58;2.15;;;;;;;;;;5053241;28;20660;-86
2023/07/23 12:57:39;;;;;;;3.15;1.88;;;;;;;;;;5050951;28;20233;-86
2023/07/23 13:00:07;;;;;;;2.50;1.80;;;;;;;;;;5052856;28;20202;-86
2023/07/23 13:02:34;;;;;;;4.90;1.75;;;;;;;;;;5051830;28;20667;-86
2023/07/23 13:05:02;;;;;;;1.67;1.52;;;;;;;;;;5053078;28;20220;-84
2023/07/23 13:07:29;;;;;;;2.42;2.22;;;;;;;;;;5060891;28;20703;-84
2023/07/23 13:09:57;;;;;;;2.80;2.40;;;;;;;;;;5053081;28;20722;-84
2023/07/23 13:12:24;;;;;;;1.98;1.63;;;;;;;;;;5051552;28;20237;-84
2023/07/23 13:14:51;;;;;;;3.95;2.33;;;;;;;;;;5052204;28;20206;-84
2023/07/23 13:17:18;;;;;;;4.43;2.00;;;;;;;;;;5056145;28;20233;-86
2023/07/23 13:19:45;;;;;;;4.63;1.67;;;;;;;;;;5052943;28;20687;-86
2023/07/23 13:22:14;;;;;;;2.72;1.85;;;;;;;;;;5052544;28;20237;-87
2023/07/23 13:24:41;;;;;;;2.85;2.05;;;;;;;;;;5052582;28;20214;-87
2023/07/23 13:27:08;;;;;;;1.55;1.45;;;;;;;;;;5055617;28;20201;-86
2023/07/23 13:29:35;;;;;;;1.98;1.88;;;;;;;;;;5051260;28;20230;-87
2023/07/23 13:32:02;;;;;;;5.18;2.38;;;;;;;;;;5050878;28;20230;-86
2023/07/23 13:34:30;;;;;;;2.42;1.98;;;;;;;;;;5050854;28;20210;-86
2023/07/23 13:36:59;;;;;;;3.03;2.72;;;;;;;;;;5050188;28;20213;-87
2023/07/23 13:39:27;;;;;;;2.78;2.10;;;;;;;;;;5047012;28;20698;-88
2023/07/23 13:41:55;;;;;;;3.47;2.20;;;;;;;;;;5052747;28;20234;-86
2023/07/23 13:44:22;;;;;;;2.33;2.13;;;;;;;;;;5052522;28;20256;-86
2023/07/23 13:46:52;;;;;;;2.25;2.05;;;;;;;;;;5052552;28;20218;-87
2023/07/23 13:49:19;;;;;;;2.13;1.92;;;;;;;;;;5050930;28;20281;-86
2023/07/23 13:51:57;;;;;;;3.28;2.15;;;;;;;;;;5051193;28;20240;-89
2023/07/23 13:54:24;;;;;;;5.05;2.30;;;;;;;;;;5052201;28;20226;-88
2023/07/23 13:56:52;;;;;;;3.28;2.30;;;;;;;;;;5053402;28;20289;-84
2023/07/23 13:59:20;;;;;;;4.72;2.53;;;;;;;;;;5056122;28;20202;-86
2023/07/23 14:01:47;;;;;;;2.83;1.98;;;;;;;;;;5055336;28;20233;-82
2023/07/23 14:04:14;;;;;;;2.35;2.15;;;;;;;;;;5055709;28;20234;-90
2023/07/23 14:06:41;;;;;;;2.40;2.20;;;;;;;;;;5057992;28;20209;-85
2023/07/23 14:09:08;;;;;;;3.30;2.03;;;;;;;;;;5056243;28;20647;-87
2023/07/23 14:11:35;;;;;;;4.30;2.10;;;;;;;;;;5056270;28;20230;-87
2023/07/23 14:14:03;;;;;;;2.63;2.20;;;;;;;;;;5055106;28;20218;-85
2023/07/23 14:16:30;;;;;;;4.60;2.13;;;;;;;;;;5056014;28;20661;-84
2023/07/23 14:18:57;;;;;;;2.35;2.00;;;;;;;;;;5054574;28;20237;-86
2023/07/23 14:21:25;;;;;;;2.67;1.95;;;;;;;;;;5058048;28;20601;-83
2023/07/23 14:23:52;;;;;;;1.98;1.88;;;;;;;;;;5056077;28;20233;-87
2023/07/23 14:26:19;;;;;;;2.33;1.60;;;;;;;;;;5055252;28;20209;-84
2023/07/23 14:28:46;;;;;;;2.40;2.17;;;;;;;;;;5053704;28;20226;-84
2023/07/23 14:31:15;;;;;;;3.22;2.03;;;;;;;;;;5054875;28;20232;-84
2023/07/23 14:33:42;;;;;;;4.40;2.22;;;;;;;;;;5053920;28;20308;-83
2023/07/23 14:36:09;;;;;;;3.45;2.10;;;;;;;;;;5054869;28;20237;-84
2023/07/23 14:38:36;;;;;;;4.07;2.35;;;;;;;;;;5052544;28;20230;-82
2023/07/23 14:41:03;;;;;;;2.65;1.85;;;;;;;;;;5052497;28;20226;-85
2023/07/23 14:43:31;;;;;;;1.75;1.65;;;;;;;;;;5053035;28;20227;-85
2023/07/23 14:45:58;;;;;;;2.63;1.92;;;;;;;;;;5047934;28;20264;-85
2023/07/23 14:48:27;;;;;;;6.47;1.85;;;;;;;;;;5053764;28;20230;-84
2023/07/23 14:50:54;;;;;;;1.95;1.75;;;;;;;;;;5053521;28;20238;-84
2023/07/23 14:53:22;;;;;;;5.00;1.90;;;;;;;;;;5054429;28;20222;-84
2023/07/23 14:55:49;;;;;;;4.30;1.60;;;;;;;;;;5054938;28;20213;-84
2023/07/23 14:58:16;;;;;;;2.40;2.03;;;;;;;;;;5053927;28;20283;-85
2023/07/23 15:00:44;;;;;;;1.85;1.70;;;;;;;;;;5054325;28;20578;-86
2023/07/23 15:03:13;;;;;;;1.85;1.67;;;;;;;;;;5054576;28;20279;-86
2023/07/23 15:05:42;;;;;;;6.95;2.00;;;;;;;;;;5054315;28;20584;-85
2023/07/23 15:08:09;;;;;;;2.55;1.92;;;;;;;;;;5054202;28;20226;-85
2023/07/23 15:10:36;;;;;;;2.03;1.80;;;;;;;;;;5054619;28;20703;-85
2023/07/23 15:13:04;;;;;;;2.22;1.52;;;;;;;;;;5054189;28;20321;-84
2023/07/23 15:15:31;;;;;;;2.63;1.70;;;;;;;;;;5053880;28;20228;-85
2023/07/23 15:17:59;;;;;;;1.92;1.52;;;;;;;;;;5053074;28;20237;-84
2023/07/23 15:20:26;;;;;;;3.22;1.83;;;;;;;;;;5054139;28;20198;-85
2023/07/23 15:22:55;;;;;;;1.70;1.60;;;;;;;;;;5053135;28;20245;-85
2023/07/23 15:25:23;;;;;;;1.52;1.42;;;;;;;;;;5053628;28;20202;-85
2023/07/23 15:27:51;;;;;;;3.75;1.77;;;;;;;;;;5053743;28;20238;-85
2023/07/23 15:30:18;;;;;;;1.80;1.70;;;;;;;;;;5053508;28;20739;-85
2023/07/23 15:32:45;;;;;;;2.13;1.67;;;;;;;;;;5053382;28;20242;-85
2023/07/23 15:35:12;;;;;;;2.63;2.00;;;;;;;;;;5053664;28;20233;-82
2023/07/23 15:37:41;;;;;;;2.05;1.95;;;;;;;;;;5052884;28;20224;-85
2023/07/23 15:40:11;;;;;;;1.77;1.67;;;;;;;;;;5045502;28;20203;-85